Portada
METAR-TAF:

METAR-TAF

Aeroports :

Tateyama, Japó

latitud: 34-59N, longitud: 139-50E, altitud: 3 m

Observació

L'informe es va fer fa 4 hores i 40 minuts, a les 14:49 UTC
Vent 5 kt del Sud-Oest, variant entre Sud i Oest
Temperatura 12°C
Humitat 76%
Pressió 1019 hPa
Visibilitat: 8000 m
Escasses núvols a una alçada de 800 ft
Núvols disperses a una alçada de 1400 ft
Cel ennuvolat a una alçada de 3000 ft
xàfecs de pluja

METAR: RJTE 181449Z 22005KT 170V260 8000 -SHRA FEW008 SCT014 BKN030 12/08 Q1019 RMK 1ST008 4CU014 6SC030 A3011

Hora: 04:29 (19:29 UTC)


TAF: manca

Observacions i pronòstics meteorològics de més de 4000 aeroports (METAR i TAF).

Les estacions disponibles són els punts grocs i vermells al mapa.

Posi el ratolí al punt desitjat per veure el nom de l'estació.

Feu clic per veure les observacions i els pronòstics meteorològics.

Per canviar el mapa: feu clic els botons verds amb una creu de color negre per apropar; al botó verd amb un guió per allunyar la imatge; o en les fletxes verdes per a mapes adjacents.


METAR-TAF: